sensor_id;sensor_type;location;lat;lon;timestamp;pressure;altitude;pressure_sealevel;temperature;humidity
21877;BME280;11103;43.788;23.710;2023-04-23T00:02:08;-14922.56;;;-144.67;100.00
21877;BME280;11103;43.788;23.710;2023-04-23T00:04:37;-14922.56;;;-144.67;100.00
21877;BME280;11103;43.788;23.710;2023-04-23T00:07:03;-14922.56;;;-144.67;100.00
21877;BME280;11103;43.788;23.710;2023-04-23T00:09:29;-14922.56;;;-144.67;100.00
21877;BME280;11103;43.788;23.710;2023-04-23T00:11:56;-14922.56;;;-144.67;100.00
21877;BME280;11103;43.788;23.710;2023-04-23T00:14:22;-14922.56;;;-144.67;100.00
21877;BME280;11103;43.788;23.710;2023-04-23T00:16:48;-14922.56;;;-144.67;100.00
21877;BME280;11103;43.788;23.710;2023-04-23T00:19:13;-14922.56;;;-144.67;100.00
21877;BME280;11103;43.788;23.710;2023-04-23T00:21:39;-14922.56;;;-144.67;100.00
21877;BME280;11103;43.788;23.710;2023-04-23T00:24:05;-14922.56;;;-144.67;100.00
21877;BME280;11103;43.788;23.710;2023-04-23T00:26:30;-14922.56;;;-144.67;100.00
21877;BME280;11103;43.788;23.710;2023-04-23T00:28:56;-14922.56;;;-144.67;100.00
21877;BME280;11103;43.788;23.710;2023-04-23T00:31:21;-14922.56;;;-144.67;100.00
21877;BME280;11103;43.788;23.710;2023-04-23T00:33:48;-14922.56;;;-144.67;100.00
21877;BME280;11103;43.788;23.710;2023-04-23T00:36:14;-14922.56;;;-144.67;100.00
21877;BME280;11103;43.788;23.710;2023-04-23T00:38:39;-14922.56;;;-144.67;100.00
21877;BME280;11103;43.788;23.710;2023-04-23T00:41:05;-14922.56;;;-144.67;100.00
21877;BME280;11103;43.788;23.710;2023-04-23T00:43:31;-14922.56;;;-144.67;100.00
21877;BME280;11103;43.788;23.710;2023-04-23T00:45:57;-14922.56;;;-144.67;100.00
21877;BME280;11103;43.788;23.710;2023-04-23T00:48:23;-14922.56;;;-144.67;100.00
21877;BME280;11103;43.788;23.710;2023-04-23T00:50:57;-14922.56;;;-144.67;100.00
21877;BME280;11103;43.788;23.710;2023-04-23T00:53:22;-14922.56;;;-144.67;100.00
21877;BME280;11103;43.788;23.710;2023-04-23T00:55:47;-14922.56;;;-144.67;100.00
21877;BME280;11103;43.788;23.710;2023-04-23T00:58:13;-14922.56;;;-144.67;100.00
21877;BME280;11103;43.788;23.710;2023-04-23T01:00:43;-14922.56;;;-144.67;100.00
21877;BME280;11103;43.788;23.710;2023-04-23T01:03:11;-14922.56;;;-144.67;100.00
21877;BME280;11103;43.788;23.710;2023-04-23T01:05:39;-14922.56;;;-144.67;100.00
21877;BME280;11103;43.788;23.710;2023-04-23T01:08:06;-14922.56;;;-144.67;100.00
21877;BME280;11103;43.788;23.710;2023-04-23T01:10:33;-14922.56;;;-144.67;100.00
21877;BME280;11103;43.788;23.710;2023-04-23T01:12:58;-14922.56;;;-144.67;100.00
21877;BME280;11103;43.788;23.710;2023-04-23T01:15:24;-14922.56;;;-144.67;100.00
21877;BME280;11103;43.788;23.710;2023-04-23T01:17:49;-14922.56;;;-144.67;100.00
21877;BME280;11103;43.788;23.710;2023-04-23T01:20:15;-14922.56;;;-144.67;100.00
21877;BME280;11103;43.788;23.710;2023-04-23T01:22:41;-14922.56;;;-144.67;100.00
21877;BME280;11103;43.788;23.710;2023-04-23T01:25:07;-14922.56;;;-144.67;100.00
21877;BME280;11103;43.788;23.710;2023-04-23T01:27:32;-14922.56;;;-144.67;100.00
21877;BME280;11103;43.788;23.710;2023-04-23T01:30:03;-14922.56;;;-144.67;100.00
21877;BME280;11103;43.788;23.710;2023-04-23T01:32:30;-14922.56;;;-144.67;100.00
21877;BME280;11103;43.788;23.710;2023-04-23T01:34:57;-14922.56;;;-144.67;100.00
21877;BME280;11103;43.788;23.710;2023-04-23T01:37:23;-14922.56;;;-144.67;100.00
21877;BME280;11103;43.788;23.710;2023-04-23T01:39:49;-14922.56;;;-144.67;100.00
21877;BME280;11103;43.788;23.710;2023-04-23T01:42:15;-14922.56;;;-144.67;100.00
21877;BME280;11103;43.788;23.710;2023-04-23T01:44:41;-14922.56;;;-144.67;100.00
21877;BME280;11103;43.788;23.710;2023-04-23T01:47:06;-14922.56;;;-144.67;100.00
21877;BME280;11103;43.788;23.710;2023-04-23T01:49:32;-14922.56;;;-144.67;100.00
21877;BME280;11103;43.788;23.710;2023-04-23T01:51:57;-14922.56;;;-144.67;100.00
21877;BME280;11103;43.788;23.710;2023-04-23T01:54:23;-14922.56;;;-144.67;100.00
21877;BME280;11103;43.788;23.710;2023-04-23T01:56:48;-14922.56;;;-144.67;100.00
21877;BME280;11103;43.788;23.710;2023-04-23T01:59:19;-14922.56;;;-144.67;100.00
21877;BME280;11103;43.788;23.710;2023-04-23T02:01:45;-14922.56;;;-144.67;100.00
21877;BME280;11103;43.788;23.710;2023-04-23T02:04:13;-14922.56;;;-144.67;100.00
21877;BME280;11103;43.788;23.710;2023-04-23T02:06:40;-14922.56;;;-144.67;100.00
21877;BME280;11103;43.788;23.710;2023-04-23T02:09:06;-14922.56;;;-144.67;100.00
21877;BME280;11103;43.788;23.710;2023-04-23T02:11:32;-14922.56;;;-144.67;100.00
21877;BME280;11103;43.788;23.710;2023-04-23T02:13:58;-14922.56;;;-144.67;100.00
21877;BME280;11103;43.788;23.710;2023-04-23T02:16:25;-14922.56;;;-144.67;100.00
21877;BME280;11103;43.788;23.710;2023-04-23T02:18:52;-14922.56;;;-144.67;100.00
21877;BME280;11103;43.788;23.710;2023-04-23T02:21:18;-14922.56;;;-144.67;100.00
21877;BME280;11103;43.788;23.710;2023-04-23T02:23:43;-14922.56;;;-144.67;100.00
21877;BME280;11103;43.788;23.710;2023-04-23T02:26:09;-14922.56;;;-144.67;100.00
21877;BME280;11103;43.788;23.710;2023-04-23T02:28:35;-14922.56;;;-144.67;100.00
21877;BME280;11103;43.788;23.710;2023-04-23T02:31:00;-14922.56;;;-144.67;100.00
21877;BME280;11103;43.788;23.710;2023-04-23T02:33:25;-14922.56;;;-144.67;100.00
21877;BME280;11103;43.788;23.710;2023-04-23T02:35:51;-14922.56;;;-144.67;100.00
21877;BME280;11103;43.788;23.710;2023-04-23T02:38:16;-14922.56;;;-144.67;100.00
21877;BME280;11103;43.788;23.710;2023-04-23T02:40:42;-14922.56;;;-144.67;100.00
21877;BME280;11103;43.788;23.710;2023-04-23T02:43:08;-14922.56;;;-144.67;100.00
21877;BME280;11103;43.788;23.710;2023-04-23T02:45:33;-14922.56;;;-144.67;100.00
21877;BME280;11103;43.788;23.710;2023-04-23T02:47:58;-14922.56;;;-144.67;100.00
21877;BME280;11103;43.788;23.710;2023-04-23T02:50:24;-14922.56;;;-144.67;100.00
21877;BME280;11103;43.788;23.710;2023-04-23T02:52:50;-14922.56;;;-144.67;100.00
21877;BME280;11103;43.788;23.710;2023-04-23T02:55:15;-14922.56;;;-144.67;100.00
21877;BME280;11103;43.788;23.710;2023-04-23T02:57:41;-14922.56;;;-144.67;100.00
21877;BME280;11103;43.788;23.710;2023-04-23T03:00:07;-14922.56;;;-144.67;100.00
21877;BME280;11103;43.788;23.710;2023-04-23T03:02:33;-14922.56;;;-144.67;100.00
21877;BME280;11103;43.788;23.710;2023-04-23T03:04:58;-14922.56;;;-144.67;100.00
21877;BME280;11103;43.788;23.710;2023-04-23T03:07:24;-14922.56;;;-144.67;100.00
21877;BME280;11103;43.788;23.710;2023-04-23T03:09:49;-14922.56;;;-144.67;100.00
21877;BME280;11103;43.788;23.710;2023-04-23T03:12:15;-14922.56;;;-144.67;100.00
21877;BME280;11103;43.788;23.710;2023-04-23T03:14:40;-14922.56;;;-144.67;100.00
21877;BME280;11103;43.788;23.710;2023-04-23T03:17:06;-14922.56;;;-144.67;100.00
21877;BME280;11103;43.788;23.710;2023-04-23T03:19:31;-14922.56;;;-144.67;100.00
21877;BME280;11103;43.788;23.710;2023-04-23T03:21:57;-14922.56;;;-144.67;100.00
21877;BME280;11103;43.788;23.710;2023-04-23T03:24:23;-14922.56;;;-144.67;100.00
21877;BME280;11103;43.788;23.710;2023-04-23T03:26:48;-14922.56;;;-144.67;100.00
21877;BME280;11103;43.788;23.710;2023-04-23T03:29:14;-14922.56;;;-144.67;100.00
21877;BME280;11103;43.788;23.710;2023-04-23T03:31:39;-14922.56;;;-144.67;100.00
21877;BME280;11103;43.788;23.710;2023-04-23T03:34:05;-14922.56;;;-144.67;100.00
21877;BME280;11103;43.788;23.710;2023-04-23T03:36:30;-14922.56;;;-144.67;100.00
21877;BME280;11103;43.788;23.710;2023-04-23T03:38:56;-14922.56;;;-144.67;100.00
21877;BME280;11103;43.788;23.710;2023-04-23T03:41:21;-14922.56;;;-144.67;100.00
21877;BME280;11103;43.788;23.710;2023-04-23T03:43:47;-14922.56;;;-144.67;100.00
21877;BME280;11103;43.788;23.710;2023-04-23T03:46:12;-14922.56;;;-144.67;100.00
21877;BME280;11103;43.788;23.710;2023-04-23T03:48:38;-14922.56;;;-144.67;100.00
21877;BME280;11103;43.788;23.710;2023-04-23T03:51:03;-14922.56;;;-144.67;100.00
21877;BME280;11103;43.788;23.710;2023-04-23T03:53:29;-14922.56;;;-144.67;100.00
21877;BME280;11103;43.788;23.710;2023-04-23T03:55:54;-14922.56;;;-144.67;100.00
21877;BME280;11103;43.788;23.710;2023-04-23T03:58:19;-14922.56;;;-144.67;100.00
21877;BME280;11103;43.788;23.710;2023-04-23T04:00:45;-14922.56;;;-144.67;100.00
21877;BME280;11103;43.788;23.710;2023-04-23T04:03:11;-14922.56;;;-144.67;100.00
21877;BME280;11103;43.788;23.710;2023-04-23T04:05:36;-14922.56;;;-144.67;100.00
21877;BME280;11103;43.788;23.710;2023-04-23T04:08:02;-14922.56;;;-144.67;100.00
21877;BME280;11103;43.788;23.710;2023-04-23T04:10:29;-14922.56;;;-144.67;100.00
21877;BME280;11103;43.788;23.710;2023-04-23T04:12:55;-14922.56;;;-144.67;100.00
21877;BME280;11103;43.788;23.710;2023-04-23T04:15:20;-14922.56;;;-144.67;100.00
21877;BME280;11103;43.788;23.710;2023-04-23T04:17:46;-14922.56;;;-144.67;100.00
21877;BME280;11103;43.788;23.710;2023-04-23T04:20:12;-14922.56;;;-144.67;100.00
21877;BME280;11103;43.788;23.710;2023-04-23T04:22:38;-14922.56;;;-144.67;100.00
21877;BME280;11103;43.788;23.710;2023-04-23T04:25:04;-14922.56;;;-144.67;100.00
21877;BME280;11103;43.788;23.710;2023-04-23T04:27:29;-14922.56;;;-144.67;100.00
21877;BME280;11103;43.788;23.710;2023-04-23T04:29:58;-14922.56;;;-144.67;100.00
21877;BME280;11103;43.788;23.710;2023-04-23T04:32:23;-14922.56;;;-144.67;100.00
21877;BME280;11103;43.788;23.710;2023-04-23T04:34:49;-14922.56;;;-144.67;100.00
21877;BME280;11103;43.788;23.710;2023-04-23T04:37:14;-14922.56;;;-144.67;100.00
21877;BME280;11103;43.788;23.710;2023-04-23T04:39:40;-14922.56;;;-144.67;100.00
21877;BME280;11103;43.788;23.710;2023-04-23T04:42:06;-14922.56;;;-144.67;100.00
21877;BME280;11103;43.788;23.710;2023-04-23T04:44:32;-14922.56;;;-144.67;100.00
21877;BME280;11103;43.788;23.710;2023-04-23T04:46:57;-14922.56;;;-144.67;100.00
21877;BME280;11103;43.788;23.710;2023-04-23T04:49:23;-14922.56;;;-144.67;100.00
21877;BME280;11103;43.788;23.710;2023-04-23T04:51:48;-14922.56;;;-144.67;100.00
21877;BME280;11103;43.788;23.710;2023-04-23T04:54:14;-14922.56;;;-144.67;100.00
21877;BME280;11103;43.788;23.710;2023-04-23T04:56:39;-14922.56;;;-144.67;100.00
21877;BME280;11103;43.788;23.710;2023-04-23T04:59:05;-14922.56;;;-144.67;100.00
21877;BME280;11103;43.788;23.710;2023-04-23T05:01:30;-14922.56;;;-144.67;100.00
21877;BME280;11103;43.788;23.710;2023-04-23T05:03:58;-14922.56;;;-144.67;100.00
21877;BME280;11103;43.788;23.710;2023-04-23T05:06:23;-14922.56;;;-144.67;100.00
21877;BME280;11103;43.788;23.710;2023-04-23T05:08:49;-14922.56;;;-144.67;100.00
21877;BME280;11103;43.788;23.710;2023-04-23T05:11:17;-14922.56;;;-144.67;100.00
21877;BME280;11103;43.788;23.710;2023-04-23T05:13:44;-14922.56;;;-144.67;100.00
21877;BME280;11103;43.788;23.710;2023-04-23T05:16:10;-14922.56;;;-144.67;100.00
21877;BME280;11103;43.788;23.710;2023-04-23T05:18:37;-14922.56;;;-144.67;100.00
21877;BME280;11103;43.788;23.710;2023-04-23T05:21:02;-14922.56;;;-144.67;100.00
21877;BME280;11103;43.788;23.710;2023-04-23T05:23:28;-14922.56;;;-144.67;100.00
21877;BME280;11103;43.788;23.710;2023-04-23T05:25:53;-14922.56;;;-144.67;100.00
21877;BME280;11103;43.788;23.710;2023-04-23T05:28:21;-14922.56;;;-144.67;100.00
21877;BME280;11103;43.788;23.710;2023-04-23T05:30:46;-14922.56;;;-144.67;100.00
21877;BME280;11103;43.788;23.710;2023-04-23T05:33:12;-14922.56;;;-144.67;100.00
21877;BME280;11103;43.788;23.710;2023-04-23T05:35:37;-14922.56;;;-144.67;100.00
21877;BME280;11103;43.788;23.710;2023-04-23T05:38:03;-14922.56;;;-144.67;100.00
21877;BME280;11103;43.788;23.710;2023-04-23T05:40:30;-14922.56;;;-144.67;100.00
21877;BME280;11103;43.788;23.710;2023-04-23T05:42:57;-14922.56;;;-144.67;100.00
21877;BME280;11103;43.788;23.710;2023-04-23T05:45:22;-14922.56;;;-144.67;100.00
21877;BME280;11103;43.788;23.710;2023-04-23T05:47:48;-14922.56;;;-144.67;100.00
21877;BME280;11103;43.788;23.710;2023-04-23T05:50:13;-14922.56;;;-144.67;100.00
21877;BME280;11103;43.788;23.710;2023-04-23T05:52:39;-14922.56;;;-144.67;100.00
21877;BME280;11103;43.788;23.710;2023-04-23T05:55:05;-14922.56;;;-144.67;100.00
21877;BME280;11103;43.788;23.710;2023-04-23T05:57:32;-14922.56;;;-144.67;100.00
21877;BME280;11103;43.788;23.710;2023-04-23T05:59:57;-14922.56;;;-144.67;100.00
21877;BME280;11103;43.788;23.710;2023-04-23T06:02:23;-14922.56;;;-144.67;100.00
21877;BME280;11103;43.788;23.710;2023-04-23T06:04:49;-14922.56;;;-144.67;100.00
21877;BME280;11103;43.788;23.710;2023-04-23T06:07:14;-14922.56;;;-144.67;100.00
21877;BME280;11103;43.788;23.710;2023-04-23T06:09:40;-14922.56;;;-144.67;100.00
21877;BME280;11103;43.788;23.710;2023-04-23T06:12:06;-14922.56;;;-144.67;100.00
21877;BME280;11103;43.788;23.710;2023-04-23T06:14:31;-14922.56;;;-144.67;100.00
21877;BME280;11103;43.788;23.710;2023-04-23T06:16:57;-14922.56;;;-144.67;100.00
21877;BME280;11103;43.788;23.710;2023-04-23T06:19:22;-14922.56;;;-144.67;100.00
21877;BME280;11103;43.788;23.710;2023-04-23T06:21:50;-14922.56;;;-144.67;100.00
21877;BME280;11103;43.788;23.710;2023-04-23T06:24:16;-14922.56;;;-144.67;100.00
21877;BME280;11103;43.788;23.710;2023-04-23T06:26:41;-14922.56;;;-144.67;100.00
21877;BME280;11103;43.788;23.710;2023-04-23T06:29:07;-14922.56;;;-144.67;100.00
21877;BME280;11103;43.788;23.710;2023-04-23T06:31:32;-14922.56;;;-144.67;100.00
21877;BME280;11103;43.788;23.710;2023-04-23T06:33:58;-14922.56;;;-144.67;100.00
21877;BME280;11103;43.788;23.710;2023-04-23T06:36:23;-14922.56;;;-144.67;100.00
21877;BME280;11103;43.788;23.710;2023-04-23T06:38:48;-14922.56;;;-144.67;100.00
21877;BME280;11103;43.788;23.710;2023-04-23T06:41:14;-14922.56;;;-144.67;100.00
21877;BME280;11103;43.788;23.710;2023-04-23T06:43:41;-14922.56;;;-144.67;100.00
21877;BME280;11103;43.788;23.710;2023-04-23T06:46:06;-14922.56;;;-144.67;100.00
21877;BME280;11103;43.788;23.710;2023-04-23T06:48:32;-14922.56;;;-144.67;100.00
21877;BME280;11103;43.788;23.710;2023-04-23T06:50:58;-14922.56;;;-144.67;100.00
21877;BME280;11103;43.788;23.710;2023-04-23T06:53:23;-14922.56;;;-144.67;100.00
21877;BME280;11103;43.788;23.710;2023-04-23T06:55:48;-14922.56;;;-144.67;100.00
21877;BME280;11103;43.788;23.710;2023-04-23T06:58:16;-14922.56;;;-144.67;100.00
21877;BME280;11103;43.788;23.710;2023-04-23T07:00:41;-14922.56;;;-144.67;100.00
21877;BME280;11103;43.788;23.710;2023-04-23T07:03:06;-14922.56;;;-144.67;100.00
21877;BME280;11103;43.788;23.710;2023-04-23T07:05:32;-14922.56;;;-144.67;100.00
21877;BME280;11103;43.788;23.710;2023-04-23T07:07:57;-14922.56;;;-144.67;100.00
21877;BME280;11103;43.788;23.710;2023-04-23T07:10:23;-14922.56;;;-144.67;100.00
21877;BME280;11103;43.788;23.710;2023-04-23T07:12:49;-14922.56;;;-144.67;100.00
21877;BME280;11103;43.788;23.710;2023-04-23T07:15:14;-14922.56;;;-144.67;100.00
21877;BME280;11103;43.788;23.710;2023-04-23T07:17:40;-14922.56;;;-144.67;100.00
21877;BME280;11103;43.788;23.710;2023-04-23T07:20:06;-14922.56;;;-144.67;100.00
21877;BME280;11103;43.788;23.710;2023-04-23T07:22:32;-14922.56;;;-144.67;100.00
21877;BME280;11103;43.788;23.710;2023-04-23T07:24:58;-14922.56;;;-144.67;100.00
21877;BME280;11103;43.788;23.710;2023-04-23T07:27:24;-14922.56;;;-144.67;100.00
21877;BME280;11103;43.788;23.710;2023-04-23T07:29:50;-14922.56;;;-144.67;100.00
21877;BME280;11103;43.788;23.710;2023-04-23T07:32:15;-14922.56;;;-144.67;100.00
21877;BME280;11103;43.788;23.710;2023-04-23T07:34:41;-14922.56;;;-144.67;100.00
21877;BME280;11103;43.788;23.710;2023-04-23T07:37:06;-14922.56;;;-144.67;100.00
21877;BME280;11103;43.788;23.710;2023-04-23T07:39:32;-14922.56;;;-144.67;100.00
21877;BME280;11103;43.788;23.710;2023-04-23T07:41:57;-14922.56;;;-144.67;100.00
21877;BME280;11103;43.788;23.710;2023-04-23T07:44:23;-14922.56;;;-144.67;100.00
21877;BME280;11103;43.788;23.710;2023-04-23T07:46:49;-14922.56;;;-144.67;100.00
21877;BME280;11103;43.788;23.710;2023-04-23T07:49:14;-14922.56;;;-144.67;100.00
21877;BME280;11103;43.788;23.710;2023-04-23T07:51:40;-14922.56;;;-144.67;100.00
21877;BME280;11103;43.788;23.710;2023-04-23T07:54:07;-14922.56;;;-144.67;100.00
21877;BME280;11103;43.788;23.710;2023-04-23T07:56:33;-14922.56;;;-144.67;100.00
21877;BME280;11103;43.788;23.710;2023-04-23T07:58:59;-14922.56;;;-144.67;100.00
21877;BME280;11103;43.788;23.710;2023-04-23T08:01:25;-14922.56;;;-144.67;100.00
21877;BME280;11103;43.788;23.710;2023-04-23T08:03:50;-14922.56;;;-144.67;100.00
21877;BME280;11103;43.788;23.710;2023-04-23T08:06:16;-14922.56;;;-144.67;100.00
21877;BME280;11103;43.788;23.710;2023-04-23T08:08:43;-14922.56;;;-144.67;100.00
21877;BME280;11103;43.788;23.710;2023-04-23T08:11:08;-14922.56;;;-144.67;100.00
21877;BME280;11103;43.788;23.710;2023-04-23T08:13:34;-14922.56;;;-144.67;100.00
21877;BME280;11103;43.788;23.710;2023-04-23T08:15:59;-14922.56;;;-144.67;100.00
21877;BME280;11103;43.788;23.710;2023-04-23T08:18:24;-14922.56;;;-144.67;100.00
21877;BME280;11103;43.788;23.710;2023-04-23T08:20:50;-14922.56;;;-144.67;100.00
21877;BME280;11103;43.788;23.710;2023-04-23T08:23:16;-14922.56;;;-144.67;100.00
21877;BME280;11103;43.788;23.710;2023-04-23T08:25:41;-14922.56;;;-144.67;100.00
21877;BME280;11103;43.788;23.710;2023-04-23T08:28:07;-14922.56;;;-144.67;100.00
21877;BME280;11103;43.788;23.710;2023-04-23T08:30:32;-14922.56;;;-144.67;100.00
21877;BME280;11103;43.788;23.710;2023-04-23T08:32:58;-14922.56;;;-144.67;100.00
21877;BME280;11103;43.788;23.710;2023-04-23T08:35:23;-14922.56;;;-144.67;100.00
21877;BME280;11103;43.788;23.710;2023-04-23T08:37:49;-14922.56;;;-144.67;100.00
21877;BME280;11103;43.788;23.710;2023-04-23T08:40:15;-14922.56;;;-144.67;100.00
21877;BME280;11103;43.788;23.710;2023-04-23T08:42:49;-14922.56;;;-144.67;100.00
21877;BME280;11103;43.788;23.710;2023-04-23T08:45:16;-14922.56;;;-144.67;100.00
21877;BME280;11103;43.788;23.710;2023-04-23T08:47:41;-14922.56;;;-144.67;100.00
21877;BME280;11103;43.788;23.710;2023-04-23T08:50:09;-14922.56;;;-144.67;100.00
21877;BME280;11103;43.788;23.710;2023-04-23T08:52:39;-14922.56;;;-144.67;100.00
21877;BME280;11103;43.788;23.710;2023-04-23T08:55:07;-14922.56;;;-144.67;100.00
21877;BME280;11103;43.788;23.710;2023-04-23T08:57:39;-14922.56;;;-144.67;100.00
21877;BME280;11103;43.788;23.710;2023-04-23T09:00:06;-14922.56;;;-144.67;100.00
21877;BME280;11103;43.788;23.710;2023-04-23T09:02:36;-14922.56;;;-144.67;100.00
21877;BME280;11103;43.788;23.710;2023-04-23T09:05:04;-14922.56;;;-144.67;100.00
21877;BME280;11103;43.788;23.710;2023-04-23T09:07:29;-14922.56;;;-144.67;100.00
21877;BME280;11103;43.788;23.710;2023-04-23T09:09:55;-14922.56;;;-144.67;100.00
21877;BME280;11103;43.788;23.710;2023-04-23T09:12:21;-14922.56;;;-144.67;100.00
21877;BME280;11103;43.788;23.710;2023-04-23T09:14:48;-14922.56;;;-144.67;100.00
21877;BME280;11103;43.788;23.710;2023-04-23T09:17:14;-14922.56;;;-144.67;100.00
21877;BME280;11103;43.788;23.710;2023-04-23T09:19:40;-14922.56;;;-144.67;100.00
21877;BME280;11103;43.788;23.710;2023-04-23T09:22:06;-14922.56;;;-144.67;100.00
21877;BME280;11103;43.788;23.710;2023-04-23T09:24:33;-14922.56;;;-144.67;100.00
21877;BME280;11103;43.788;23.710;2023-04-23T09:26:58;-14922.56;;;-144.67;100.00
21877;BME280;11103;43.788;23.710;2023-04-23T09:29:24;-14922.56;;;-144.67;100.00
21877;BME280;11103;43.788;23.710;2023-04-23T09:31:52;-14922.56;;;-144.67;100.00
21877;BME280;11103;43.788;23.710;2023-04-23T09:34:19;-14922.56;;;-144.67;100.00
21877;BME280;11103;43.788;23.710;2023-04-23T09:36:47;-14922.56;;;-144.67;100.00
21877;BME280;11103;43.788;23.710;2023-04-23T09:39:15;-14922.56;;;-144.67;100.00
21877;BME280;11103;43.788;23.710;2023-04-23T09:41:41;-14922.56;;;-144.67;100.00
21877;BME280;11103;43.788;23.710;2023-04-23T09:44:07;-14922.56;;;-144.67;100.00
21877;BME280;11103;43.788;23.710;2023-04-23T09:49:00;-14922.56;;;-144.67;100.00
21877;BME280;11103;43.788;23.710;2023-04-23T09:51:26;-14922.56;;;-144.67;100.00
21877;BME280;11103;43.788;23.710;2023-04-23T09:53:52;-14922.56;;;-144.67;100.00
21877;BME280;11103;43.788;23.710;2023-04-23T09:56:18;-14922.56;;;-144.67;100.00
21877;BME280;11103;43.788;23.710;2023-04-23T09:58:45;-14922.56;;;-144.67;100.00
21877;BME280;11103;43.788;23.710;2023-04-23T10:01:10;-14922.56;;;-144.67;100.00
21877;BME280;11103;43.788;23.710;2023-04-23T10:03:41;-14922.56;;;-144.67;100.00
21877;BME280;11103;43.788;23.710;2023-04-23T10:06:07;-14922.56;;;-144.67;100.00
21877;BME280;11103;43.788;23.710;2023-04-23T10:08:33;-14922.56;;;-144.67;100.00
21877;BME280;11103;43.788;23.710;2023-04-23T10:10:59;-14922.56;;;-144.67;100.00
21877;BME280;11103;43.788;23.710;2023-04-23T10:13:25;-14921.13;;;-144.67;100.00
21877;BME280;11103;43.788;23.710;2023-04-23T10:15:51;-13938.44;;;-144.67;100.00
21877;BME280;11103;43.788;23.710;2023-04-23T10:18:18;-14429.81;;;-144.67;100.00
21877;BME280;11103;43.788;23.710;2023-04-23T10:20:44;-14921.13;;;-144.67;100.00
21877;BME280;11103;43.788;23.710;2023-04-23T10:23:10;-14922.56;;;-144.67;100.00
21877;BME280;11103;43.788;23.710;2023-04-23T10:25:38;-11234.50;;;-144.67;100.00
21877;BME280;11103;43.788;23.710;2023-04-23T10:28:05;-12955.44;;;-144.67;100.00
21877;BME280;11103;43.788;23.710;2023-04-23T10:30:34;-10742.63;;;-144.67;100.00
21877;BME280;11103;43.788;23.710;2023-04-23T10:33:01;-2616.09;;;-144.67;100.00
21877;BME280;11103;43.788;23.710;2023-04-23T10:35:28;-5573.53;;;-144.67;100.00
21877;BME280;11103;43.788;23.710;2023-04-23T10:37:54;-11726.28;;;-144.67;100.00
21877;BME280;11103;43.788;23.710;2023-04-23T10:40:25;-4834.41;;;-144.67;100.00
21877;BME280;11103;43.788;23.710;2023-04-23T10:42:54;-3355.69;;;-144.67;100.00
21877;BME280;11103;43.788;23.710;2023-04-23T10:45:20;15928.53;;;-144.67;89.76
21877;BME280;11103;43.788;23.710;2023-04-23T10:47:46;590.84;;;-144.67;99.35
21877;BME280;11103;43.788;23.710;2023-04-23T10:50:43;44066.38;;;-144.67;80.35
21877;BME280;11103;43.788;23.710;2023-04-23T10:53:18;55839.53;;;-144.67;79.07
21877;BME280;11103;43.788;23.710;2023-04-23T10:55:46;31835.88;;;-144.67;85.16
21877;BME280;11103;43.788;23.710;2023-04-23T10:58:12;28100.78;;;-144.67;86.47
21877;BME280;11103;43.788;23.710;2023-04-23T11:06:00;62872.84;;;-144.67;78.01
21877;BME280;11103;43.788;23.710;2023-04-23T11:08:28;29345.34;;;-144.67;87.04
21877;BME280;11103;43.788;23.710;2023-04-23T11:10:55;71757.81;;;-144.67;75.96
21877;BME280;11103;43.788;23.710;2023-04-23T11:13:25;84688.72;;;-144.67;70.23
21877;BME280;11103;43.788;23.710;2023-04-23T11:16:14;79852.44;;;-144.67;74.20
21877;BME280;11103;43.788;23.710;2023-04-23T11:19:08;78324.72;;;-144.67;74.88
21877;BME280;11103;43.788;23.710;2023-04-23T11:24:27;80764.63;;;-144.67;74.19
21877;BME280;11103;43.788;23.710;2023-04-23T11:26:53;74486.75;;;-144.67;75.96
21877;BME280;11103;43.788;23.710;2023-04-23T11:29:23;83546.19;;;-144.67;71.80
21877;BME280;11103;43.788;23.710;2023-04-23T11:31:50;85143.44;;;-144.67;66.44
21877;BME280;11103;43.788;23.710;2023-04-23T11:34:16;80610.63;;;-144.67;74.79
21877;BME280;11103;43.788;23.710;2023-04-23T11:36:42;80421.06;;;-144.67;74.62
21877;BME280;11103;43.788;23.710;2023-04-23T11:39:08;85050.53;;;-144.67;68.98
21877;BME280;11103;43.788;23.710;2023-04-23T11:41:35;85218.59;;;-144.67;66.37
21877;BME280;11103;43.788;23.710;2023-04-23T11:44:00;83475.06;;;-144.67;72.41
21877;BME280;11103;43.788;23.710;2023-04-23T11:46:26;84882.47;;;-144.67;69.94
21877;BME280;11103;43.788;23.710;2023-04-23T11:48:51;85171.13;;;-144.67;61.27
21877;BME280;11103;43.788;23.710;2023-04-23T11:51:17;85212.66;;;-144.67;67.48
21877;BME280;11103;43.788;23.710;2023-04-23T11:53:46;85171.13;;;-144.67;61.79
21877;BME280;11103;43.788;23.710;2023-04-23T11:56:15;85101.94;;;-144.67;59.45
21877;BME280;11103;43.788;23.710;2023-04-23T11:58:40;85181.03;;;-144.67;61.94
21877;BME280;11103;43.788;23.710;2023-04-23T12:01:06;85171.13;;;-144.67;63.76
21877;BME280;11103;43.788;23.710;2023-04-23T12:03:32;85121.69;;;-144.67;60.12
21877;BME280;11103;43.788;23.710;2023-04-23T12:05:58;84993.19;;;-144.67;58.46
21877;BME280;11103;43.788;23.710;2023-04-23T12:08:23;84902.25;;;-144.67;55.94
21877;BME280;11103;43.788;23.710;2023-04-23T12:10:54;85060.41;;;-144.67;59.81
21877;BME280;11103;43.788;23.710;2023-04-23T12:13:25;85024.81;;;-144.67;58.77
21877;BME280;11103;43.788;23.710;2023-04-23T12:15:56;84862.69;;;-144.67;54.51
21877;BME280;11103;43.788;23.710;2023-04-23T12:18:33;84931.91;;;-144.67;56.11
21877;BME280;11103;43.788;23.710;2023-04-23T12:21:11;84941.78;;;-144.67;56.23